»·PEaware :: N899M KRDD-KSAC

N899M :: KRDD-KSAC

FLIGHT INFORMATION

Flight Status: Arrived
Operator: Privately registered:
United States
More flights under this callsign
Pilot: Robert C. (30425)
Aircraft: Unknown
(EPIC)
More flights by this aircraft type
Origin: KRDD Redding Mun
United States
Destination: KSAC Sacramento Executive
United States
More flights between these airports :: More routes between these airports
Route: RBL ILA HAGAN
File this flight plan on PilotEdge
Remarks:
Altitude:
(Current/Filed)
7,500ft
Speed:
(Current/Filed)
300kts
Departed: 09-Nov-20 10:55 AM
Arrived: 09-Nov-20 11:32 AM
Distance/Time
Traveled:
125nm/0:37
Distance/Time
To Go:
Arrived

Flight Plot

Page will automatically refresh every two minutes.

Flight plan parsing failed; only flown route is shown


Map Options




Map Legend


Flown Route
Filed Route
Departure Airport
Arrival Airport
Navaid (VOR, NDB)
Fix

Horizontal Profiles

Position Reports

Time Latitude Longitude Heading Altitude Ground
Speed
09-Nov-20 10:34 40.510633 -122.299820 359 501ft 0kts
09-Nov-20 10:35 40.510633 -122.299820 0 501ft 0kts
09-Nov-20 10:36 40.510633 -122.299820 359 501ft 0kts
09-Nov-20 10:37 40.510633 -122.299820 359 501ft 0kts
09-Nov-20 10:38 40.510633 -122.299820 359 501ft 0kts
09-Nov-20 10:39 40.510633 -122.299820 359 501ft 0kts
09-Nov-20 10:40 40.510633 -122.299820 359 501ft 0kts
09-Nov-20 10:41 40.510633 -122.299820 359 501ft 0kts
09-Nov-20 10:42 40.510633 -122.299820 0 501ft 0kts
09-Nov-20 10:43 40.510633 -122.299820 359 501ft 0kts
09-Nov-20 10:44 40.510633 -122.299820 359 501ft 0kts
09-Nov-20 10:45 40.511010 -122.299415 73 502ft 0kts
09-Nov-20 10:47 40.510271 -122.298558 182 499ft 13kts
09-Nov-20 10:48 40.504574 -122.298247 175 496ft 26kts
09-Nov-20 10:49 40.501553 -122.296177 138 495ft 0kts
09-Nov-20 10:50 40.501553 -122.296177 138 495ft 0kts
09-Nov-20 10:51 40.501553 -122.296177 138 495ft 0kts
09-Nov-20 10:52 40.501553 -122.296177 138 495ft 0kts
09-Nov-20 10:53 40.501529 -122.296002 92 495ft 7kts
09-Nov-20 10:54 40.501480 -122.295054 59 495ft 12kts
09-Nov-20 10:55 40.529498 -122.294218 4 980ft 158kts
09-Nov-20 10:56 40.553155 -122.325729 236 2074ft 192kts
09-Nov-20 10:57 40.497942 -122.330200 173 3119ft 242kts
09-Nov-20 10:58 40.422747 -122.320018 173 4272ft 290kts
09-Nov-20 10:59 40.341914 -122.298203 168 5390ft 302kts
09-Nov-20 11:00 40.259769 -122.277227 168 6486ft 297kts
09-Nov-20 11:01 40.182087 -122.247793 173 7485ft 299kts
09-Nov-20 11:02 40.098246 -122.236123 171 7500ft 300kts
09-Nov-20 11:03 40.016562 -122.219320 170 7502ft 295kts
09-Nov-20 11:04 39.935521 -122.202608 170 7498ft 294kts
09-Nov-20 11:04 39.868368 -122.188869 170 7496ft 293kts
09-Nov-20 11:06 39.774511 -122.169607 170 7498ft 292kts
09-Nov-20 11:06 39.707573 -122.155928 170 7498ft 292kts
09-Nov-20 11:08 39.614099 -122.136872 170 7499ft 292kts
09-Nov-20 11:08 39.547320 -122.123290 170 7481ft 292kts
09-Nov-20 11:09 39.466999 -122.106997 170 7482ft 292kts
09-Nov-20 11:10 39.387124 -122.090829 169 7484ft 291kts
09-Nov-20 11:11 39.307184 -122.074663 169 7487ft 290kts
09-Nov-20 11:12 39.229374 -122.058904 169 7186ft 269kts
09-Nov-20 11:13 39.159334 -122.044112 169 6670ft 242kts
09-Nov-20 11:14 39.094791 -122.030356 169 6173ft 234kts
09-Nov-20 11:15 39.036709 -122.000241 140 5548ft 227kts
09-Nov-20 11:16 38.980746 -121.972636 161 5161ft 219kts
09-Nov-20 11:17 38.923889 -121.945891 155 4772ft 217kts
09-Nov-20 11:18 38.867230 -121.920019 165 4373ft 218kts
09-Nov-20 11:19 38.808973 -121.896957 158 3644ft 217kts
09-Nov-20 11:20 38.754935 -121.871357 156 2830ft 197kts
09-Nov-20 11:21 38.704744 -121.846920 156 2119ft 192kts
09-Nov-20 11:22 38.655107 -121.822560 154 1541ft 184kts
09-Nov-20 11:23 38.612436 -121.797372 147 1534ft 156kts
09-Nov-20 11:24 38.573231 -121.770120 147 1541ft 164kts
09-Nov-20 11:25 38.540404 -121.732003 121 1541ft 162kts
09-Nov-20 11:26 38.526297 -121.680829 89 1541ft 155kts
09-Nov-20 11:27 38.521925 -121.624337 102 1332ft 171kts
09-Nov-20 11:28 38.502104 -121.567140 110 1133ft 159kts
09-Nov-20 11:29 38.487268 -121.524280 84 1088ft 114kts
09-Nov-20 11:30 38.507210 -121.499146 26 42ft 86kts
09-Nov-20 11:31 38.516904 -121.491015 34 23ft 29kts
09-Nov-20 11:32 38.519645 -121.493868 270 24ft 24kts
09-Nov-20 11:33 38.520332 -121.496124 133 24ft 0kts

Navigation Log

Ident Type
Flight plan parsing failed, navigation log unavailable